createdAt,value
2023-05-25T00:00:00.861Z,78.64
2023-05-25T00:05:02.545Z,79.34
2023-05-25T00:10:06.258Z,79.44
2023-05-25T00:15:08.455Z,80.02
2023-05-25T00:20:11.006Z,80.05
2023-05-25T00:25:12.820Z,79.95
2023-05-25T00:30:15.066Z,80.34
2023-05-25T00:35:16.812Z,80.39
2023-05-25T00:40:22.048Z,80.87
2023-05-25T00:45:23.669Z,80.92
2023-05-25T00:50:38.099Z,81.51
2023-05-25T00:55:51.616Z,81.69
2023-05-25T01:00:58.946Z,81.51
2023-05-25T01:06:02.655Z,82.21
2023-05-25T01:11:06.618Z,81.89
2023-05-25T01:16:09.704Z,81.97
2023-05-25T01:21:20.486Z,81.94
2023-05-25T01:26:27.153Z,82.02
2023-05-25T01:31:30.352Z,82.51
2023-05-25T01:36:33.310Z,82.11
2023-05-25T01:41:34.942Z,82.35
2023-05-25T01:46:41.165Z,82.96
2023-05-25T01:52:11.935Z,82.54
2023-05-25T01:57:16.854Z,82.84
2023-05-25T02:02:21.014Z,83.10
2023-05-25T02:07:23.268Z,83.76
2023-05-25T02:12:25.457Z,83.67
2023-05-25T02:17:28.789Z,83.42
2023-05-25T02:22:31.507Z,83.84
2023-05-25T02:27:33.362Z,83.90
2023-05-25T02:32:35.949Z,84.17
2023-05-25T02:37:37.957Z,84.32
2023-05-25T02:42:39.824Z,84.06
2023-05-25T02:47:41.488Z,84.11
2023-05-25T02:52:43.819Z,84.47
2023-05-25T02:57:45.612Z,84.32
2023-05-25T03:02:58.265Z,84.69
2023-05-25T03:08:00.683Z,85.06
2023-05-25T03:13:05.755Z,85.03
2023-05-25T03:18:08.035Z,84.94
2023-05-25T03:23:12.813Z,85.18
2023-05-25T03:28:14.892Z,84.98
2023-05-25T03:33:16.634Z,85.20
2023-05-25T03:38:22.455Z,85.96
2023-05-25T03:43:24.308Z,86.03
2023-05-25T03:48:26.342Z,86.63
2023-05-25T03:53:28.220Z,86.38
2023-05-25T03:58:29.991Z,86.39
2023-05-25T04:03:33.033Z,86.41
2023-05-25T04:08:34.989Z,86.45
2023-05-25T04:13:36.917Z,86.54
2023-05-25T04:18:39.709Z,86.78
2023-05-25T04:23:41.456Z,87.67
2023-05-25T04:28:43.924Z,88.13
2023-05-25T04:33:56.243Z,88.18
2023-05-25T04:39:07.478Z,88.01
2023-05-25T04:44:15.834Z,88.08
2023-05-25T04:49:21.534Z,88.13
2023-05-25T04:54:23.345Z,88.38
2023-05-25T04:59:25.697Z,88.35
2023-05-25T05:04:27.411Z,88.29
2023-05-25T05:09:29.770Z,88.58
2023-05-25T05:14:34.116Z,89.50
2023-05-25T05:19:36.051Z,88.72
2023-05-25T05:24:38.933Z,88.67
2023-05-25T05:29:40.991Z,88.98
2023-05-25T05:34:42.934Z,89.66
2023-05-25T05:39:56.608Z,89.11
2023-05-25T05:44:58.508Z,90.61
2023-05-25T05:50:00.277Z,90.94
2023-05-25T05:55:03.876Z,90.69
2023-05-25T06:00:07.085Z,90.35
2023-05-25T06:05:20.841Z,89.72
2023-05-25T06:10:22.997Z,90.08
2023-05-25T06:15:26.038Z,90.06
2023-05-25T06:20:31.997Z,89.52
2023-05-25T06:25:33.736Z,87.50
2023-05-25T06:30:35.635Z,88.46
2023-05-25T06:35:38.361Z,89.29
2023-05-25T06:40:40.320Z,86.81
2023-05-25T06:45:42.454Z,85.26
2023-05-25T06:50:46.129Z,84.91
2023-05-25T06:55:49.960Z,84.43
2023-05-25T07:00:51.616Z,84.22
2023-05-25T07:05:53.297Z,83.61
2023-05-25T07:10:54.947Z,82.74
2023-05-25T07:15:56.839Z,80.77
2023-05-25T07:20:59.387Z,80.70
2023-05-25T07:26:01.668Z,79.11
2023-05-25T07:31:04.644Z,79.84
2023-05-25T07:36:06.703Z,78.77
2023-05-25T07:41:08.670Z,79.44
2023-05-25T07:46:11.056Z,78.01
2023-05-25T07:51:12.770Z,74.34
2023-05-25T07:56:14.629Z,75.86
2023-05-25T08:01:16.349Z,76.75
2023-05-25T08:06:20.845Z,78.26
2023-05-25T08:11:27.703Z,78.53
2023-05-25T08:16:29.517Z,76.28
2023-05-25T08:21:35.060Z,76.10
2023-05-25T08:26:53.756Z,75.39
2023-05-25T08:31:56.268Z,74.21
2023-05-25T08:36:58.071Z,74.39
2023-05-25T08:42:00.015Z,74.26
2023-05-25T08:47:07.007Z,73.05
2023-05-25T08:52:13.509Z,71.69
2023-05-25T08:57:20.489Z,71.65
2023-05-25T09:02:46.567Z,72.39
2023-05-25T09:07:51.681Z,71.10
2023-05-25T09:12:55.059Z,70.84
2023-05-25T09:17:56.978Z,73.52
2023-05-25T09:23:00.624Z,73.87
2023-05-25T09:28:10.114Z,74.58
2023-05-25T09:33:24.088Z,72.99
2023-05-25T09:38:26.074Z,73.93
2023-05-25T09:43:40.627Z,72.92
2023-05-25T09:48:45.651Z,73.44
2023-05-25T09:53:52.567Z,73.68
2023-05-25T09:58:54.410Z,73.24
2023-05-25T10:04:04.813Z,73.21
2023-05-25T10:09:09.026Z,72.85
2023-05-25T10:14:14.731Z,71.76
2023-05-25T10:19:23.089Z,70.53
2023-05-25T10:24:34.514Z,70.07
2023-05-25T10:29:39.802Z,67.57
2023-05-25T10:34:42.227Z,67.49
2023-05-25T10:39:45.547Z,68.04
2023-05-25T10:44:48.009Z,68.77
2023-05-25T10:49:55.904Z,67.15
2023-05-25T10:55:01.854Z,67.83
2023-05-25T11:00:08.949Z,66.54
2023-05-25T11:05:26.060Z,66.91
2023-05-25T11:10:55.335Z,65.58
2023-05-25T11:16:22.196Z,64.72
2023-05-25T11:21:32.670Z,62.18
2023-05-25T11:26:34.819Z,62.30
2023-05-25T11:31:41.497Z,62.22
2023-05-25T11:36:45.698Z,62.39
2023-05-25T11:42:02.164Z,61.97
2023-05-25T11:47:09.825Z,63.03
2023-05-25T11:52:13.432Z,62.98
2023-05-25T11:57:19.102Z,63.21
2023-05-25T12:02:21.830Z,65.36
2023-05-25T12:07:24.324Z,58.79
2023-05-25T12:12:26.188Z,58.88
2023-05-25T12:17:28.122Z,58.30
2023-05-25T12:22:29.927Z,58.05
2023-05-25T12:27:34.118Z,55.91
2023-05-25T12:32:51.800Z,54.50
2023-05-25T12:38:19.880Z,52.61
2023-05-25T12:43:21.759Z,53.75
2023-05-25T12:48:27.902Z,56.39
2023-05-25T12:53:31.251Z,52.34
2023-05-25T12:58:33.319Z,50.19
2023-05-25T13:03:35.004Z,50.34
2023-05-25T13:08:36.878Z,49.74
2023-05-25T13:13:38.634Z,49.92
2023-05-25T13:18:40.395Z,48.84
2023-05-25T13:23:42.074Z,49.73
2023-05-25T13:28:43.895Z,46.21
2023-05-25T13:33:45.607Z,46.26
2023-05-25T13:38:47.218Z,45.93
2023-05-25T13:43:50.511Z,46.84
2023-05-25T13:48:52.171Z,46.06
2023-05-25T13:53:54.077Z,46.36
2023-05-25T13:58:55.746Z,46.12
2023-05-25T14:03:59.810Z,45.98
2023-05-25T14:09:01.721Z,44.63
2023-05-25T14:14:04.347Z,44.81
2023-05-25T14:19:07.106Z,44.79
2023-05-25T14:24:08.979Z,44.64
2023-05-25T14:29:12.976Z,43.20
2023-05-25T14:34:14.783Z,42.96
2023-05-25T14:39:17.369Z,42.52
2023-05-25T14:44:19.750Z,43.22
2023-05-25T14:49:24.803Z,44.17
2023-05-25T14:54:28.602Z,42.19
2023-05-25T14:59:30.301Z,41.91
2023-05-25T15:04:32.032Z,41.65
2023-05-25T15:09:33.979Z,39.63
2023-05-25T15:14:39.869Z,40.12
2023-05-25T15:19:41.533Z,42.26
2023-05-25T15:24:43.154Z,41.82
2023-05-25T15:29:45.975Z,41.79
2023-05-25T15:34:47.747Z,41.74
2023-05-25T15:39:49.740Z,43.97
2023-05-25T15:44:52.449Z,42.68
2023-05-25T15:49:54.134Z,41.27
2023-05-25T15:54:55.877Z,41.83
2023-05-25T15:59:57.506Z,41.92
2023-05-25T16:04:59.228Z,43.11
2023-05-25T16:10:00.934Z,43.90
2023-05-25T16:15:02.494Z,43.49
2023-05-25T16:20:04.902Z,43.42
2023-05-25T16:25:07.211Z,45.09
2023-05-25T16:30:11.089Z,44.56
2023-05-25T16:35:14.312Z,44.20
2023-05-25T16:40:16.505Z,44.84
2023-05-25T16:45:21.032Z,45.05
2023-05-25T16:50:22.741Z,46.17
2023-05-25T16:55:25.493Z,46.87
2023-05-25T17:00:27.176Z,47.86
2023-05-25T17:05:28.825Z,46.57
2023-05-25T17:10:30.456Z,46.27
2023-05-25T17:15:32.124Z,47.29
2023-05-25T17:20:33.962Z,46.86
2023-05-25T17:25:35.824Z,48.92
2023-05-25T17:30:37.445Z,48.96
2023-05-25T17:35:39.564Z,48.00
2023-05-25T17:40:41.267Z,47.88
2023-05-25T17:45:43.274Z,47.72
2023-05-25T17:50:45.296Z,47.98
2023-05-25T17:55:47.355Z,49.17
2023-05-25T18:00:52.653Z,50.17
2023-05-25T18:05:54.471Z,49.93
2023-05-25T18:10:56.378Z,50.85
2023-05-25T18:15:58.216Z,50.95
2023-05-25T18:21:00.244Z,51.10
2023-05-25T18:26:01.992Z,51.11
2023-05-25T18:31:03.727Z,53.12
2023-05-25T18:36:05.604Z,53.51
2023-05-25T18:41:07.286Z,53.69
2023-05-25T18:46:08.984Z,54.13
2023-05-25T18:51:11.093Z,54.59
2023-05-25T18:56:12.747Z,57.17
2023-05-25T19:01:14.451Z,56.30
2023-05-25T19:06:16.205Z,55.73
2023-05-25T19:11:20.039Z,56.37
2023-05-25T19:16:21.712Z,57.21
2023-05-25T19:21:23.406Z,58.01
2023-05-25T19:26:26.138Z,58.16
2023-05-25T19:31:27.791Z,59.21
2023-05-25T19:36:29.756Z,57.88
2023-05-25T19:41:31.559Z,58.73
2023-05-25T19:46:33.721Z,59.42
2023-05-25T19:51:36.796Z,59.67
2023-05-25T19:56:38.438Z,60.39
2023-05-25T20:01:40.236Z,60.73
2023-05-25T20:06:41.917Z,61.89
2023-05-25T20:11:43.894Z,61.64
2023-05-25T20:16:45.766Z,62.60
2023-05-25T20:21:49.633Z,62.38
2023-05-25T20:26:56.728Z,63.56
2023-05-25T20:31:58.762Z,64.25
2023-05-25T20:37:01.042Z,62.60
2023-05-25T20:42:02.884Z,63.75
2023-05-25T20:47:05.203Z,63.93
2023-05-25T20:52:08.230Z,63.61
2023-05-25T20:57:11.975Z,63.67
2023-05-25T21:02:13.770Z,64.15
2023-05-25T21:07:15.748Z,64.54
2023-05-25T21:12:17.494Z,64.99
2023-05-25T21:17:20.892Z,64.72
2023-05-25T21:22:22.997Z,65.11
2023-05-25T21:27:24.715Z,65.12
2023-05-25T21:32:26.403Z,65.95
2023-05-25T21:37:28.288Z,66.03
2023-05-25T21:42:29.979Z,66.08
2023-05-25T21:47:31.620Z,67.45
2023-05-25T21:52:33.312Z,67.00
2023-05-25T21:57:34.977Z,68.22
2023-05-25T22:02:36.676Z,67.71
2023-05-25T22:07:39.547Z,68.53
2023-05-25T22:12:41.152Z,67.76
2023-05-25T22:17:42.864Z,68.04
2023-05-25T22:22:45.000Z,69.33
2023-05-25T22:27:46.713Z,69.09
2023-05-25T22:32:48.361Z,69.83
2023-05-25T22:37:50.580Z,69.66
2023-05-25T22:42:52.304Z,69.92
2023-05-25T22:47:54.463Z,70.00
2023-05-25T22:52:56.199Z,69.18
2023-05-25T22:57:57.852Z,69.07
2023-05-25T23:03:00.998Z,69.12
2023-05-25T23:08:04.751Z,69.10
2023-05-25T23:13:07.610Z,68.74
2023-05-25T23:18:09.303Z,69.40
2023-05-25T23:23:10.973Z,68.05
2023-05-25T23:28:12.619Z,68.76
2023-05-25T23:33:14.307Z,68.13
2023-05-25T23:38:16.204Z,68.66
2023-05-25T23:43:17.978Z,69.20
2023-05-25T23:48:20.107Z,69.49
2023-05-25T23:53:21.769Z,70.03
2023-05-25T23:58:23.843Z,69.83
